createdAt,value
2019-04-25T00:02:36.650Z,99410.88
2019-04-25T00:07:42.543Z,99414.91
2019-04-25T00:12:51.516Z,99417.37
2019-04-25T00:17:57.005Z,99425.88
2019-04-25T00:23:15.469Z,99438.41
2019-04-25T00:28:21.723Z,99446.23
2019-04-25T00:33:26.926Z,99448.95
2019-04-25T00:38:31.932Z,99473.53
2019-04-25T00:43:36.943Z,99469.61
2019-04-25T00:48:43.129Z,99491.15
2019-04-25T00:53:48.361Z,99494.27
2019-04-25T00:59:05.477Z,99494.28
2019-04-25T01:04:12.321Z,99494.34
2019-04-25T01:09:18.530Z,99482.61
2019-04-25T01:14:23.661Z,99476.55
2019-04-25T01:19:28.767Z,99458.94
2019-04-25T01:24:34.028Z,99478.23
2019-04-25T01:29:39.185Z,99493.72
2019-04-25T01:34:54.897Z,99490.99
2019-04-25T01:40:17.670Z,99507.70
2019-04-25T01:45:25.849Z,99503.25
2019-04-25T01:50:30.897Z,99509.67
2019-04-25T01:55:35.900Z,99513.89
2019-04-25T02:00:44.955Z,99510.73
2019-04-25T02:05:51.684Z,99510.80
2019-04-25T02:11:16.196Z,99531.44
2019-04-25T02:16:21.497Z,99532.93
2019-04-25T02:21:27.574Z,99528.64
2019-04-25T02:26:34.008Z,99537.18
2019-04-25T02:31:39.213Z,99548.60
2019-04-25T02:36:46.885Z,99563.03
2019-04-25T02:41:51.070Z,99566.25
2019-04-25T02:47:29.042Z,99572.44
2019-04-25T02:52:37.212Z,99571.93
2019-04-25T02:57:44.716Z,99588.55
2019-04-25T03:02:48.953Z,99574.87
2019-04-25T03:07:54.579Z,99569.61
2019-04-25T03:13:00.328Z,99561.74
2019-04-25T03:18:11.900Z,99560.49
2019-04-25T03:23:35.032Z,99574.27
2019-04-25T03:28:39.391Z,99583.33
2019-04-25T03:33:45.929Z,99576.91
2019-04-25T03:38:51.709Z,99579.29
2019-04-25T03:43:57.015Z,99590.84
2019-04-25T03:49:02.595Z,99598.70
2019-04-25T03:54:10.307Z,99603.14
2019-04-25T03:59:16.088Z,99608.56
2019-04-25T04:04:23.563Z,99619.13
2019-04-25T04:09:28.252Z,99626.98
2019-04-25T04:14:33.858Z,99640.50
2019-04-25T04:19:47.648Z,99648.92
2019-04-25T04:24:55.530Z,99646.38
2019-04-25T04:30:00.583Z,99650.95
2019-04-25T04:35:07.155Z,99657.37
2019-04-25T04:40:12.264Z,99669.00
2019-04-25T04:45:17.256Z,99690.28
2019-04-25T04:50:28.560Z,99683.37
2019-04-25T04:55:34.620Z,99685.63
2019-04-25T05:00:39.702Z,99693.89
2019-04-25T05:05:59.584Z,99697.05
2019-04-25T05:11:04.883Z,99707.73
2019-04-25T05:16:11.183Z,99702.84
2019-04-25T05:21:20.360Z,99707.49
2019-04-25T05:26:26.506Z,99704.34
2019-04-25T05:31:38.060Z,99697.81
2019-04-25T05:36:43.843Z,99702.06
2019-04-25T05:42:04.611Z,99714.25
2019-04-25T05:47:14.988Z,99720.05
2019-04-25T05:52:21.949Z,99725.95
2019-04-25T05:57:28.336Z,99743.40
2019-04-25T06:02:34.095Z,99741.33
2019-04-25T06:07:39.291Z,99753.56
2019-04-25T06:13:03.515Z,99754.23
2019-04-25T06:18:15.764Z,99758.17
2019-04-25T06:23:44.341Z,99760.59
2019-04-25T06:28:57.112Z,99771.03
2019-04-25T06:33:59.055Z,99777.14
2019-04-25T06:39:08.507Z,99786.16
2019-04-25T06:44:30.721Z,99794.52
2019-04-25T06:49:38.514Z,99797.48
2019-04-25T06:54:48.188Z,99796.89
2019-04-25T06:59:57.028Z,99802.48
2019-04-25T07:05:05.448Z,99797.04
2019-04-25T07:10:13.319Z,99801.73
2019-04-25T07:15:18.924Z,99802.08
2019-04-25T07:20:26.090Z,99803.44
2019-04-25T07:25:35.474Z,99802.48
2019-04-25T07:31:13.340Z,99802.34
2019-04-25T07:36:21.165Z,99811.53
2019-04-25T07:41:31.521Z,99814.97
2019-04-25T07:46:39.973Z,99824.58
2019-04-25T07:51:45.693Z,99833.30
2019-04-25T07:56:51.647Z,99833.02
2019-04-25T08:01:58.794Z,99840.76
2019-04-25T08:07:14.145Z,99835.57
2019-04-25T08:12:19.700Z,99833.81
2019-04-25T08:17:54.081Z,99838.55
2019-04-25T08:23:05.087Z,99836.11
2019-04-25T08:28:10.226Z,99836.76
2019-04-25T08:33:15.430Z,99829.39
2019-04-25T08:38:27.661Z,99830.31
2019-04-25T08:43:37.751Z,99818.41
2019-04-25T08:49:07.116Z,99816.13
2019-04-25T08:54:20.635Z,99816.95
2019-04-25T09:00:04.245Z,99823.52
2019-04-25T09:05:24.112Z,99824.92
2019-04-25T09:10:29.789Z,99815.78
2019-04-25T09:15:37.956Z,99810.55
2019-04-25T09:20:46.375Z,99813.78
2019-04-25T09:25:54.434Z,99807.46
2019-04-25T09:30:59.946Z,99803.02
2019-04-25T09:36:06.910Z,99805.75
2019-04-25T09:41:13.869Z,99804.00
2019-04-25T09:46:25.629Z,99797.50
2019-04-25T09:51:44.605Z,99792.94
2019-04-25T09:56:53.272Z,99794.69
2019-04-25T10:02:00.184Z,99799.31
2019-04-25T10:07:05.929Z,99802.78
2019-04-25T10:12:11.034Z,99795.67
2019-04-25T10:17:16.414Z,99796.53
2019-04-25T10:22:21.555Z,99786.76
2019-04-25T10:27:31.710Z,99782.84
2019-04-25T10:33:07.481Z,99773.05
2019-04-25T10:39:00.161Z,99772.16
2019-04-25T10:44:00.212Z,99761.70
2019-04-25T10:49:08.191Z,99756.57
2019-04-25T10:54:14.556Z,99755.47
2019-04-25T10:59:20.105Z,99748.08
2019-04-25T11:04:33.691Z,99743.16
2019-04-25T11:09:45.064Z,99734.92
2019-04-25T11:14:58.210Z,99740.46
2019-04-25T11:20:05.576Z,99740.18
2019-04-25T11:25:24.052Z,99727.95
2019-04-25T11:30:38.819Z,99728.32
2019-04-25T11:35:50.253Z,99734.91
2019-04-25T11:41:04.005Z,99725.13
2019-04-25T11:46:11.732Z,99709.56
2019-04-25T11:51:17.809Z,99700.09
2019-04-25T11:56:24.271Z,99702.75
2019-04-25T12:01:33.632Z,99701.44
2019-04-25T12:06:46.979Z,99689.63
2019-04-25T12:12:11.572Z,99684.58
2019-04-25T12:17:19.408Z,99687.52
2019-04-25T12:22:25.680Z,99682.03
2019-04-25T12:27:30.978Z,99672.67
2019-04-25T12:32:37.220Z,99663.66
2019-04-25T12:37:44.201Z,99671.67
2019-04-25T12:42:49.887Z,99652.03
2019-04-25T12:47:59.444Z,99653.13
2019-04-25T12:53:09.284Z,99639.68
2019-04-25T12:58:16.252Z,99633.97
2019-04-25T13:03:24.206Z,99625.30
2019-04-25T13:08:30.063Z,99623.28
2019-04-25T13:13:37.157Z,99612.56
2019-04-25T13:18:43.359Z,99609.14
2019-04-25T13:23:48.813Z,99607.08
2019-04-25T13:29:05.376Z,99609.39
2019-04-25T13:34:19.047Z,99603.76
2019-04-25T13:39:25.096Z,99587.80
2019-04-25T13:44:30.945Z,99584.30
2019-04-25T13:49:36.773Z,99581.58
2019-04-25T13:55:03.807Z,99569.18
2019-04-25T14:00:18.069Z,99565.38
2019-04-25T14:05:36.172Z,99565.77
2019-04-25T14:10:41.482Z,99552.98
2019-04-25T14:15:53.888Z,99545.99
2019-04-25T14:21:09.823Z,99544.58
2019-04-25T14:26:15.524Z,99531.33
2019-04-25T14:31:33.773Z,99520.27
2019-04-25T14:36:28.635Z,99518.55
2019-04-25T14:41:33.873Z,99511.30
2019-04-25T14:46:39.249Z,99511.22
2019-04-25T14:51:44.526Z,99502.81
2019-04-25T14:57:00.158Z,99501.98
2019-04-25T15:02:06.563Z,99490.79
2019-04-25T15:07:11.833Z,99490.61
2019-04-25T15:12:18.008Z,99493.21
2019-04-25T15:17:29.420Z,99477.70
2019-04-25T15:22:36.151Z,99472.36
2019-04-25T15:27:41.351Z,99472.00
2019-04-25T15:32:48.213Z,99478.91
2019-04-25T15:37:59.067Z,99474.30
2019-04-25T15:43:12.208Z,99479.44
2019-04-25T15:48:17.557Z,99467.80
2019-04-25T15:53:22.667Z,99470.75
2019-04-25T15:58:27.904Z,99468.63
2019-04-25T16:03:33.225Z,99461.44
2019-04-25T16:08:38.309Z,99470.00
2019-04-25T16:13:43.404Z,99452.73
2019-04-25T16:18:49.946Z,99447.11
2019-04-25T16:23:55.314Z,99453.98
2019-04-25T16:29:00.884Z,99451.14
2019-04-25T16:34:06.409Z,99453.33
2019-04-25T16:39:18.508Z,99444.22
2019-04-25T16:44:23.950Z,99442.72
2019-04-25T16:49:29.986Z,99445.67
2019-04-25T16:54:35.916Z,99441.43
2019-04-25T16:59:42.090Z,99446.13
2019-04-25T17:04:48.637Z,99436.22
2019-04-25T17:09:54.171Z,99433.89
2019-04-25T17:15:57.276Z,99425.53
2019-04-25T17:21:06.002Z,99434.89
2019-04-25T17:26:13.162Z,99431.22
2019-04-25T17:31:39.224Z,99431.83
2019-04-25T17:37:05.013Z,99425.23
2019-04-25T17:42:19.655Z,99426.17
2019-04-25T17:48:31.864Z,99424.66
2019-04-25T17:53:43.317Z,99414.19
2019-04-25T17:58:50.424Z,99409.91
2019-04-25T18:10:30.848Z,99408.79
2019-04-25T18:21:27.019Z,99401.44
2019-04-25T18:26:51.174Z,99406.67
2019-04-25T18:31:59.003Z,99403.02
2019-04-25T18:37:23.360Z,99409.41
2019-04-25T18:42:48.272Z,99404.77
2019-04-25T18:47:54.653Z,99403.39
2019-04-25T18:53:10.594Z,99403.19
2019-04-25T18:58:38.632Z,99401.66
2019-04-25T19:04:07.994Z,99411.91
2019-04-25T19:09:14.723Z,99409.98
2019-04-25T19:14:20.362Z,99407.46
2019-04-25T19:19:25.909Z,99408.22
2019-04-25T19:24:32.070Z,99403.57
2019-04-25T19:29:40.325Z,99392.69
2019-04-25T19:34:52.034Z,99401.22
2019-04-25T19:40:30.429Z,99397.34
2019-04-25T19:45:42.532Z,99398.69
2019-04-25T19:50:54.081Z,99391.33
2019-04-25T19:56:23.812Z,99395.75
2019-04-25T20:01:32.458Z,99395.12
2019-04-25T20:06:56.157Z,99390.28
2019-04-25T20:12:04.047Z,99394.33
2019-04-25T20:17:11.775Z,99383.69
2019-04-25T20:22:17.135Z,99385.79
2019-04-25T20:27:27.615Z,99377.86
2019-04-25T20:32:32.777Z,99371.45
2019-04-25T20:37:40.370Z,99365.78
2019-04-25T20:42:46.976Z,99363.43
2019-04-25T20:47:56.928Z,99362.46
2019-04-25T20:53:02.193Z,99355.27
2019-04-25T20:58:08.550Z,99352.56
2019-04-25T21:03:14.128Z,99350.22
2019-04-25T21:08:19.868Z,99344.95
2019-04-25T21:14:04.173Z,99347.27
2019-04-25T21:19:15.618Z,99344.76
2019-04-25T21:24:25.843Z,99345.86
2019-04-25T21:29:33.596Z,99344.72
2019-04-25T21:34:59.453Z,99340.42
2019-04-25T21:40:15.404Z,99340.00
2019-04-25T21:45:22.662Z,99334.74
2019-04-25T21:50:28.492Z,99339.55
2019-04-25T21:55:33.947Z,99325.20
2019-04-25T22:00:58.593Z,99330.41
2019-04-25T22:06:10.795Z,99323.03
2019-04-25T22:11:16.316Z,99322.59
2019-04-25T22:16:23.159Z,99311.94
2019-04-25T22:21:37.850Z,99308.83
2019-04-25T22:26:37.598Z,99309.36
2019-04-25T22:32:01.493Z,99299.59
2019-04-25T22:37:09.160Z,99303.20
2019-04-25T22:42:14.628Z,99299.80
2019-04-25T22:47:19.662Z,99293.63
2019-04-25T22:52:24.714Z,99283.69
2019-04-25T22:57:29.774Z,99274.25
2019-04-25T23:02:44.191Z,99268.57
2019-04-25T23:07:49.797Z,99265.24
2019-04-25T23:12:56.024Z,99261.39
2019-04-25T23:18:01.218Z,99261.39
2019-04-25T23:23:07.692Z,99251.31
2019-04-25T23:28:19.140Z,99253.22
2019-04-25T23:33:24.472Z,99251.28
2019-04-25T23:38:31.970Z,99244.48
2019-04-25T23:43:37.822Z,99240.95
2019-04-25T23:48:42.960Z,99241.67
2019-04-25T23:53:48.048Z,99239.65
2019-04-25T23:58:53.088Z,99233.16
